createdAt,value
2022-08-01T00:00:50.046Z,20.37
2022-08-01T00:01:54.344Z,20.35
2022-08-01T00:02:58.624Z,20.35
2022-08-01T00:04:02.953Z,20.38
2022-08-01T00:05:10.504Z,20.39
2022-08-01T00:06:14.852Z,20.38
2022-08-01T00:07:18.826Z,20.37
2022-08-01T00:08:27.278Z,20.33
2022-08-01T00:09:31.601Z,20.35
2022-08-01T00:10:36.259Z,20.36
2022-08-01T00:11:43.005Z,20.36
2022-08-01T00:13:03.154Z,20.32
2022-08-01T00:13:54.558Z,20.28
2022-08-01T00:15:00.305Z,20.27
2022-08-01T00:16:05.908Z,20.25
2022-08-01T00:17:14.274Z,20.25
2022-08-01T00:18:18.295Z,20.21
2022-08-01T00:19:22.449Z,20.19
2022-08-01T00:20:27.270Z,20.19
2022-08-01T00:21:32.136Z,20.19
2022-08-01T00:22:36.841Z,20.19
2022-08-01T00:23:40.830Z,20.15
2022-08-01T00:24:44.947Z,20.10
2022-08-01T00:25:48.933Z,20.10
2022-08-01T00:26:54.516Z,20.09
2022-08-01T00:27:58.616Z,20.07
2022-08-01T00:29:02.663Z,20.07
2022-08-01T00:30:14.586Z,20.06
2022-08-01T00:31:15.989Z,20.06
2022-08-01T00:32:20.586Z,20.05
2022-08-01T00:33:24.651Z,20.05
2022-08-01T00:34:28.757Z,20.02
2022-08-01T00:35:34.130Z,19.98
2022-08-01T00:36:38.983Z,19.93
2022-08-01T00:37:42.942Z,19.89
2022-08-01T00:38:46.996Z,19.88
2022-08-01T00:39:52.577Z,19.88
2022-08-01T00:40:56.874Z,19.87
2022-08-01T00:42:04.164Z,19.87
2022-08-01T00:43:08.489Z,19.85
2022-08-01T00:44:12.526Z,19.83
2022-08-01T00:45:16.579Z,19.83
2022-08-01T00:46:22.163Z,19.84
2022-08-01T00:47:26.211Z,19.83
2022-08-01T00:48:33.353Z,19.80
2022-08-01T00:49:39.218Z,19.78
2022-08-01T00:50:45.015Z,19.78
2022-08-01T00:51:49.327Z,19.70
2022-08-01T00:52:54.742Z,19.64
2022-08-01T00:53:58.868Z,19.63
2022-08-01T00:55:02.909Z,19.63
2022-08-01T00:56:08.857Z,19.63
2022-08-01T00:57:15.166Z,19.60
2022-08-01T00:58:32.777Z,19.60
2022-08-01T00:59:28.633Z,19.60
2022-08-01T01:00:53.211Z,19.57
2022-08-01T01:01:46.563Z,19.55
2022-08-01T01:02:49.059Z,19.54
2022-08-01T01:03:58.930Z,19.54
2022-08-01T01:05:00.658Z,19.54
2022-08-01T01:06:10.578Z,19.48
2022-08-01T01:07:20.484Z,19.39
2022-08-01T01:08:27.542Z,19.39
2022-08-01T01:09:34.561Z,19.31
2022-08-01T01:10:59.200Z,19.30
2022-08-01T01:12:38.524Z,19.30
2022-08-01T01:13:50.469Z,19.26
2022-08-01T01:15:05.904Z,19.21
2022-08-01T01:16:15.696Z,19.22
2022-08-01T01:17:49.684Z,19.19
2022-08-01T01:18:46.236Z,19.19
2022-08-01T01:19:53.489Z,19.14
2022-08-01T01:21:03.394Z,19.14
2022-08-01T01:22:22.498Z,19.12
2022-08-01T01:23:48.617Z,19.07
2022-08-01T01:25:23.770Z,19.07
2022-08-01T01:26:48.718Z,19.09
2022-08-01T01:28:04.117Z,19.08
2022-08-01T01:29:19.914Z,19.03
2022-08-01T01:30:27.379Z,19.01
2022-08-01T01:31:34.528Z,19.01
2022-08-01T01:32:46.090Z,19.02
2022-08-01T01:33:53.122Z,18.99
2022-08-01T01:34:59.939Z,19.00
2022-08-01T01:36:11.379Z,19.02
2022-08-01T01:37:22.895Z,19.02
2022-08-01T01:38:29.724Z,18.98
2022-08-01T01:39:37.995Z,18.95
2022-08-01T01:40:44.735Z,18.95
2022-08-01T01:41:50.735Z,18.96
2022-08-01T01:42:56.964Z,18.96
2022-08-01T01:44:03.186Z,18.99
2022-08-01T01:45:08.579Z,19.00
2022-08-01T01:46:15.936Z,18.96
2022-08-01T01:47:20.397Z,18.96
2022-08-01T01:48:26.029Z,18.96
2022-08-01T01:49:31.246Z,18.97
2022-08-01T01:50:36.984Z,19.00
2022-08-01T01:51:53.267Z,19.00
2022-08-01T01:52:50.693Z,19.06
2022-08-01T01:53:56.585Z,19.06
2022-08-01T01:55:02.803Z,19.02
2022-08-01T01:56:06.968Z,19.02
2022-08-01T01:57:13.413Z,19.03
2022-08-01T01:58:19.155Z,19.03
2022-08-01T01:59:26.129Z,19.03
2022-08-01T02:00:32.257Z,19.02
2022-08-01T02:01:58.882Z,19.02
2022-08-01T02:02:44.857Z,18.99
2022-08-01T02:03:51.105Z,18.99
2022-08-01T02:04:58.279Z,18.97
2022-08-01T02:06:03.577Z,18.96
2022-08-01T02:07:09.214Z,18.94
2022-08-01T02:08:16.177Z,18.95
2022-08-01T02:09:22.066Z,18.95
2022-08-01T02:10:28.673Z,18.94
2022-08-01T02:11:35.120Z,18.92
2022-08-01T02:12:42.417Z,18.93
2022-08-01T02:13:55.189Z,18.96
2022-08-01T02:14:59.653Z,18.92
2022-08-01T02:16:06.618Z,18.95
2022-08-01T02:17:13.380Z,18.94
2022-08-01T02:18:17.439Z,18.98
2022-08-01T02:19:23.140Z,18.98
2022-08-01T02:20:31.492Z,18.98
2022-08-01T02:21:41.753Z,18.99
2022-08-01T02:23:01.081Z,19.00
2022-08-01T02:24:10.774Z,19.00
2022-08-01T02:25:23.009Z,19.04
2022-08-01T02:26:29.668Z,19.06
2022-08-01T02:27:36.694Z,19.06
2022-08-01T02:28:43.599Z,19.09
2022-08-01T02:29:50.589Z,19.09
2022-08-01T02:30:56.957Z,19.11
2022-08-01T02:32:03.826Z,19.12
2022-08-01T02:33:15.774Z,19.13
2022-08-01T02:34:21.190Z,19.15
2022-08-01T02:35:28.197Z,19.15
2022-08-01T02:36:34.924Z,19.17
2022-08-01T02:37:46.961Z,19.24
2022-08-01T02:38:48.043Z,19.27
2022-08-01T02:39:55.269Z,19.30
2022-08-01T02:41:03.838Z,19.40
2022-08-01T02:42:11.280Z,19.50
2022-08-01T02:43:20.886Z,19.50
2022-08-01T02:44:41.973Z,19.71
2022-08-01T02:45:50.098Z,19.79
2022-08-01T02:46:53.283Z,19.79
2022-08-01T02:48:02.790Z,19.83
2022-08-01T02:49:10.293Z,19.77
2022-08-01T02:50:20.622Z,19.75
2022-08-01T02:51:26.356Z,19.75
2022-08-01T02:52:32.198Z,18.47
2022-08-01T02:53:44.668Z,19.64
2022-08-01T02:54:48.045Z,19.58
2022-08-01T02:55:54.069Z,19.60
2022-08-01T02:56:59.332Z,19.60
2022-08-01T02:58:06.076Z,19.54
2022-08-01T02:59:13.680Z,19.54
2022-08-01T03:00:19.950Z,19.52
2022-08-01T03:01:25.915Z,19.55
2022-08-01T03:02:32.069Z,19.55
2022-08-01T03:03:38.580Z,19.53
2022-08-01T03:04:44.135Z,19.53
2022-08-01T03:05:50.110Z,19.55
2022-08-01T03:06:57.497Z,19.55
2022-08-01T03:08:02.769Z,19.56
2022-08-01T03:09:11.714Z,19.56
2022-08-01T03:10:18.052Z,19.55
2022-08-01T03:11:23.916Z,19.55
2022-08-01T03:12:31.018Z,19.62
2022-08-01T03:13:35.333Z,19.67
2022-08-01T03:14:42.463Z,19.67
2022-08-01T03:15:48.179Z,19.73
2022-08-01T03:16:54.096Z,19.86
2022-08-01T03:18:02.062Z,19.86
2022-08-01T03:19:08.433Z,20.06
2022-08-01T03:20:15.971Z,20.06
2022-08-01T03:21:23.273Z,20.16
2022-08-01T03:22:30.410Z,20.41
2022-08-01T03:23:37.714Z,20.41
2022-08-01T03:24:45.016Z,20.70
2022-08-01T03:25:51.080Z,20.91
2022-08-01T03:26:59.032Z,20.91
2022-08-01T03:28:05.299Z,21.04
2022-08-01T03:29:12.329Z,21.25
2022-08-01T03:30:18.083Z,21.24
2022-08-01T03:31:22.620Z,21.28
2022-08-01T03:32:28.568Z,21.27
2022-08-01T03:33:32.686Z,21.31
2022-08-01T03:34:36.783Z,21.31
2022-08-01T03:35:46.445Z,21.50
2022-08-01T03:37:02.836Z,21.50
2022-08-01T03:38:17.247Z,21.48
2022-08-01T03:39:17.888Z,21.43
2022-08-01T03:40:34.197Z,21.40
2022-08-01T03:41:41.165Z,21.40
2022-08-01T03:42:48.165Z,21.42
2022-08-01T03:44:03.753Z,21.48
2022-08-01T03:45:13.316Z,21.48
2022-08-01T03:46:20.590Z,21.48
2022-08-01T03:47:27.590Z,21.50
2022-08-01T03:48:33.810Z,21.54
2022-08-01T03:49:40.791Z,21.48
2022-08-01T03:50:53.565Z,21.48
2022-08-01T03:51:59.085Z,21.41
2022-08-01T03:53:05.334Z,21.37
2022-08-01T03:54:11.696Z,21.33
2022-08-01T03:55:17.995Z,21.31
2022-08-01T03:56:25.349Z,21.25
2022-08-01T03:57:36.268Z,21.27
2022-08-01T03:58:38.941Z,21.27
2022-08-01T03:59:44.079Z,21.30
2022-08-01T04:00:48.687Z,21.31
2022-08-01T04:01:52.948Z,21.28
2022-08-01T04:02:57.363Z,21.38
2022-08-01T04:04:02.018Z,21.43
2022-08-01T04:05:08.089Z,21.50
2022-08-01T04:06:13.759Z,21.50
2022-08-01T04:07:34.766Z,21.61
2022-08-01T04:08:41.028Z,21.61
2022-08-01T04:09:45.064Z,21.71
2022-08-01T04:10:50.232Z,21.78
2022-08-01T04:11:54.608Z,21.87
2022-08-01T04:12:58.644Z,22.27
2022-08-01T04:14:02.689Z,22.27
2022-08-01T04:15:11.411Z,22.51
2022-08-01T04:16:17.123Z,22.66
2022-08-01T04:17:21.339Z,22.88
2022-08-01T04:18:25.359Z,23.00
2022-08-01T04:19:29.330Z,23.00
2022-08-01T04:20:33.676Z,23.08
2022-08-01T04:21:39.845Z,23.19
2022-08-01T04:22:46.514Z,23.33
2022-08-01T04:23:52.682Z,23.33
2022-08-01T04:25:00.514Z,23.40
2022-08-01T04:26:06.978Z,23.39
2022-08-01T04:27:16.578Z,23.44
2022-08-01T04:28:24.843Z,23.46
2022-08-01T04:29:31.202Z,23.46
2022-08-01T04:30:38.009Z,23.53
2022-08-01T04:31:46.343Z,23.70
2022-08-01T04:32:52.371Z,23.74
2022-08-01T04:33:58.782Z,23.87
2022-08-01T04:35:23.085Z,23.87
2022-08-01T04:36:15.801Z,23.99
2022-08-01T04:37:20.912Z,24.35
2022-08-01T04:38:27.989Z,24.35
2022-08-01T04:39:35.091Z,24.70
2022-08-01T04:40:43.194Z,24.70
2022-08-01T04:41:48.203Z,24.92
2022-08-01T04:42:52.315Z,25.39
2022-08-01T04:43:56.435Z,25.63
2022-08-01T04:45:01.008Z,25.89
2022-08-01T04:46:09.440Z,25.89
2022-08-01T04:47:16.156Z,26.04
2022-08-01T04:48:22.775Z,26.26
2022-08-01T04:49:28.296Z,26.45
2022-08-01T04:50:32.553Z,26.87
2022-08-01T04:51:36.795Z,26.87
2022-08-01T04:52:40.993Z,27.22
2022-08-01T04:53:46.175Z,27.22
2022-08-01T04:54:50.212Z,27.53
2022-08-01T04:55:55.866Z,27.53
2022-08-01T04:57:00.092Z,27.91
2022-08-01T04:58:05.090Z,27.91
2022-08-01T04:59:15.579Z,28.15
2022-08-01T05:00:15.924Z,28.57
2022-08-01T05:01:20.854Z,28.57
2022-08-01T05:02:25.264Z,28.79
2022-08-01T05:03:30.935Z,29.09
2022-08-01T05:04:34.983Z,29.20
2022-08-01T05:05:41.051Z,29.20
2022-08-01T05:06:46.448Z,29.20
2022-08-01T05:07:52.092Z,29.25
2022-08-01T05:08:56.138Z,29.22
2022-08-01T05:10:00.111Z,29.09
2022-08-01T05:11:04.440Z,29.15
2022-08-01T05:12:10.635Z,29.03
2022-08-01T05:13:14.657Z,28.93
2022-08-01T05:14:18.647Z,28.83
2022-08-01T05:15:22.672Z,28.83
2022-08-01T05:16:28.321Z,28.51
2022-08-01T05:17:34.738Z,28.55
2022-08-01T05:18:38.694Z,28.51
2022-08-01T05:19:42.802Z,28.52
2022-08-01T05:20:46.835Z,28.52
2022-08-01T05:21:51.214Z,28.57
2022-08-01T05:23:00.349Z,28.57
2022-08-01T05:24:01.485Z,28.68
2022-08-01T05:25:06.208Z,28.73
2022-08-01T05:26:14.578Z,28.73
2022-08-01T05:27:18.038Z,28.72
2022-08-01T05:28:23.523Z,28.84
2022-08-01T05:29:28.425Z,28.20
2022-08-01T05:30:32.451Z,29.05
2022-08-01T05:31:36.569Z,29.05
2022-08-01T05:32:40.592Z,29.03
2022-08-01T05:33:44.556Z,28.99
2022-08-01T05:34:48.543Z,28.99
2022-08-01T05:35:52.568Z,28.91
2022-08-01T05:36:57.072Z,28.91
2022-08-01T05:38:04.139Z,28.83
2022-08-01T05:39:09.324Z,28.73
2022-08-01T05:40:13.988Z,28.74
2022-08-01T05:41:18.039Z,28.74
2022-08-01T05:42:22.057Z,28.71
2022-08-01T05:43:28.902Z,28.66
2022-08-01T05:44:31.998Z,28.66
2022-08-01T05:45:36.042Z,28.57
2022-08-01T05:46:41.329Z,28.64
2022-08-01T05:47:45.369Z,28.64
2022-08-01T05:48:49.535Z,28.62
2022-08-01T05:50:04.769Z,28.62
2022-08-01T05:50:59.479Z,28.64
2022-08-01T05:52:04.460Z,28.73
2022-08-01T05:53:08.727Z,28.73
2022-08-01T05:54:13.025Z,28.61
2022-08-01T05:55:17.198Z,28.67
2022-08-01T05:56:23.951Z,28.63
2022-08-01T05:57:29.385Z,28.52
2022-08-01T05:58:33.692Z,28.36
2022-08-01T05:59:37.908Z,28.36
2022-08-01T06:00:44.523Z,28.20
2022-08-01T06:01:50.145Z,28.13
2022-08-01T06:02:54.284Z,28.13
2022-08-01T06:03:58.352Z,28.13
2022-08-01T06:05:02.507Z,28.11
2022-08-01T06:06:07.013Z,27.94
2022-08-01T06:07:11.038Z,27.94
2022-08-01T06:08:15.192Z,27.80
2022-08-01T06:09:19.412Z,27.50
2022-08-01T06:10:25.065Z,27.50
2022-08-01T06:11:29.196Z,27.43
2022-08-01T06:12:35.768Z,27.24
2022-08-01T06:13:48.267Z,27.24
2022-08-01T06:14:45.792Z,27.04
2022-08-01T06:15:50.299Z,26.96
2022-08-01T06:16:54.449Z,26.96
2022-08-01T06:17:58.625Z,27.07
2022-08-01T06:19:02.719Z,26.95
2022-08-01T06:20:07.115Z,26.95
2022-08-01T06:21:12.773Z,27.07
2022-08-01T06:22:18.774Z,27.07
2022-08-01T06:23:31.978Z,27.07
2022-08-01T06:24:28.886Z,27.25
2022-08-01T06:25:34.470Z,27.39
2022-08-01T06:26:41.333Z,27.49
2022-08-01T06:27:45.721Z,27.57
2022-08-01T06:28:49.757Z,27.64
2022-08-01T06:29:54.166Z,27.67
2022-08-01T06:30:58.510Z,27.54
2022-08-01T06:32:04.539Z,26.64
2022-08-01T06:33:08.727Z,27.53
2022-08-01T06:34:14.186Z,27.46
2022-08-01T06:35:18.245Z,27.33
2022-08-01T06:36:22.607Z,27.32
2022-08-01T06:37:31.330Z,27.38
2022-08-01T06:38:38.191Z,27.38
2022-08-01T06:39:42.359Z,27.51
2022-08-01T06:40:46.602Z,27.48
2022-08-01T06:41:52.900Z,27.48
2022-08-01T06:42:57.033Z,27.63
2022-08-01T06:44:24.291Z,27.63
2022-08-01T06:45:08.706Z,27.64
2022-08-01T06:46:13.219Z,27.53
2022-08-01T06:47:17.191Z,27.44
2022-08-01T06:48:22.651Z,27.55
2022-08-01T06:49:29.060Z,27.53
2022-08-01T06:50:36.319Z,27.57
2022-08-01T06:51:42.451Z,27.57
2022-08-01T06:52:46.512Z,27.47
2022-08-01T06:53:52.189Z,27.37
2022-08-01T06:54:56.063Z,27.35
2022-08-01T06:56:01.811Z,27.32
2022-08-01T06:57:08.893Z,27.32
2022-08-01T06:58:12.867Z,27.19
2022-08-01T06:59:16.826Z,27.24
2022-08-01T07:00:24.011Z,27.24
2022-08-01T07:01:29.659Z,27.22
2022-08-01T07:02:33.700Z,27.11
2022-08-01T07:03:54.586Z,27.15
2022-08-01T07:04:44.477Z,26.93
2022-08-01T07:05:48.472Z,27.12
2022-08-01T07:06:52.518Z,27.12
2022-08-01T07:07:56.553Z,27.24
2022-08-01T07:09:07.253Z,27.27
2022-08-01T07:10:08.104Z,27.37
2022-08-01T07:11:12.470Z,27.33
2022-08-01T07:12:18.134Z,27.33
2022-08-01T07:13:22.276Z,27.38
2022-08-01T07:14:26.650Z,27.29
2022-08-01T07:15:30.701Z,27.32
2022-08-01T07:16:36.944Z,27.22
2022-08-01T07:17:42.800Z,27.17
2022-08-01T07:18:46.837Z,27.12
2022-08-01T07:19:52.809Z,27.23
2022-08-01T07:20:58.113Z,27.33
2022-08-01T07:22:05.564Z,27.44
2022-08-01T07:23:09.902Z,27.52
2022-08-01T07:24:16.347Z,27.77
2022-08-01T07:25:22.117Z,27.77
2022-08-01T07:26:27.913Z,27.79
2022-08-01T07:27:33.756Z,28.04
2022-08-01T07:28:44.069Z,28.07
2022-08-01T07:29:48.517Z,28.06
2022-08-01T07:30:54.695Z,28.06
2022-08-01T07:31:59.601Z,28.28
2022-08-01T07:33:07.915Z,28.22
2022-08-01T07:34:10.160Z,28.30
2022-08-01T07:35:14.381Z,28.30
2022-08-01T07:36:21.862Z,28.29
2022-08-01T07:37:47.887Z,28.29
2022-08-01T07:38:31.538Z,28.34
2022-08-01T07:39:35.661Z,28.38
2022-08-01T07:40:40.663Z,28.44
2022-08-01T07:42:05.948Z,28.44
2022-08-01T07:42:51.379Z,28.50
2022-08-01T07:43:58.816Z,28.50
2022-08-01T07:45:01.506Z,28.26
2022-08-01T07:46:06.101Z,28.24
2022-08-01T07:47:10.256Z,28.24
2022-08-01T07:48:15.232Z,28.22
2022-08-01T07:49:20.945Z,28.17
2022-08-01T07:50:26.588Z,28.17
2022-08-01T07:51:30.629Z,28.10
2022-08-01T07:52:34.796Z,28.01
2022-08-01T07:53:39.036Z,28.06
2022-08-01T07:54:43.081Z,27.92
2022-08-01T07:55:56.464Z,27.92
2022-08-01T07:56:59.581Z,27.95
2022-08-01T07:58:03.636Z,28.02
2022-08-01T07:59:07.718Z,28.08
2022-08-01T08:00:13.739Z,28.08
2022-08-01T08:01:18.018Z,28.10
2022-08-01T08:02:22.120Z,28.16
2022-08-01T08:03:26.205Z,28.31
2022-08-01T08:04:33.462Z,28.32
2022-08-01T08:05:58.443Z,28.32
2022-08-01T08:06:41.790Z,28.22
2022-08-01T08:07:45.813Z,28.30
2022-08-01T08:08:49.962Z,28.20
2022-08-01T08:09:53.994Z,28.20
2022-08-01T08:10:59.806Z,28.12
2022-08-01T08:12:06.317Z,28.12
2022-08-01T08:13:10.702Z,28.16
2022-08-01T08:14:16.134Z,28.16
2022-08-01T08:15:20.289Z,28.24
2022-08-01T08:16:28.535Z,28.24
2022-08-01T08:17:35.735Z,28.28
2022-08-01T08:18:38.811Z,28.28
2022-08-01T08:19:43.013Z,28.31
2022-08-01T08:20:50.175Z,28.44
2022-08-01T08:21:54.393Z,28.46
2022-08-01T08:22:59.805Z,28.46
2022-08-01T08:24:03.933Z,28.29
2022-08-01T08:25:09.464Z,28.34
2022-08-01T08:26:15.082Z,28.32
2022-08-01T08:27:19.346Z,28.32
2022-08-01T08:28:28.118Z,28.38
2022-08-01T08:29:32.468Z,28.46
2022-08-01T08:30:36.435Z,28.44
2022-08-01T08:31:51.302Z,28.44
2022-08-01T08:32:46.259Z,28.34
2022-08-01T08:33:50.285Z,28.34
2022-08-01T08:34:54.386Z,28.39
2022-08-01T08:35:58.442Z,28.44
2022-08-01T08:37:03.945Z,27.61
2022-08-01T08:38:08.882Z,27.61
2022-08-01T08:39:14.609Z,28.55
2022-08-01T08:40:22.805Z,28.57
2022-08-01T08:41:27.310Z,28.61
2022-08-01T08:42:34.119Z,28.65
2022-08-01T08:43:38.269Z,28.50
2022-08-01T08:44:44.453Z,28.45
2022-08-01T08:45:59.837Z,28.52
2022-08-01T08:46:56.429Z,28.52
2022-08-01T08:48:01.238Z,28.53
2022-08-01T08:49:07.229Z,28.65
2022-08-01T08:50:12.085Z,28.71
2022-08-01T08:51:19.048Z,28.78
2022-08-01T08:52:23.631Z,28.82
2022-08-01T08:53:34.811Z,28.77
2022-08-01T08:54:38.185Z,28.84
2022-08-01T08:55:56.343Z,28.86
2022-08-01T08:56:52.181Z,28.86
2022-08-01T08:57:59.262Z,28.90
2022-08-01T08:59:04.465Z,28.90
2022-08-01T09:00:10.119Z,28.95
2022-08-01T09:01:15.487Z,29.07
2022-08-01T09:02:19.721Z,29.07
2022-08-01T09:03:23.844Z,29.09
2022-08-01T09:04:28.210Z,29.06
2022-08-01T09:05:39.266Z,29.02
2022-08-01T09:06:39.970Z,29.02
2022-08-01T09:07:45.556Z,29.08
2022-08-01T09:08:52.799Z,29.08
2022-08-01T09:09:59.921Z,29.02
2022-08-01T09:11:05.541Z,29.05
2022-08-01T09:12:12.117Z,29.10
2022-08-01T09:13:17.108Z,29.18
2022-08-01T09:14:21.241Z,29.26
2022-08-01T09:15:45.941Z,29.26
2022-08-01T09:17:02.117Z,29.23
2022-08-01T09:18:08.654Z,29.29
2022-08-01T09:19:40.501Z,27.55
2022-08-01T09:20:33.584Z,27.55
2022-08-01T09:21:40.239Z,29.34
2022-08-01T09:22:47.657Z,29.37
2022-08-01T09:23:54.285Z,29.36
2022-08-01T09:25:07.508Z,29.37
2022-08-01T09:26:15.620Z,29.37
2022-08-01T09:28:10.285Z,29.42
2022-08-01T09:28:34.339Z,29.45
2022-08-01T09:29:49.925Z,29.45
2022-08-01T09:30:48.363Z,29.51
2022-08-01T09:31:52.981Z,29.53
2022-08-01T09:33:00.820Z,29.59
2022-08-01T09:34:06.258Z,29.56
2022-08-01T09:35:30.745Z,29.59
2022-08-01T09:36:54.588Z,29.59
2022-08-01T09:38:20.803Z,29.51
2022-08-01T09:39:27.796Z,29.51
2022-08-01T09:40:50.032Z,29.54
2022-08-01T09:41:58.198Z,29.52
2022-08-01T09:43:17.246Z,29.27
2022-08-01T09:44:27.479Z,29.28
2022-08-01T09:45:41.311Z,29.28
2022-08-01T09:46:59.875Z,29.44
2022-08-01T09:48:07.691Z,29.72
2022-08-01T09:49:13.474Z,29.58
2022-08-01T09:50:21.025Z,29.58
2022-08-01T09:51:59.996Z,29.55
2022-08-01T09:52:42.079Z,29.52
2022-08-01T09:53:51.791Z,29.38
2022-08-01T09:55:02.954Z,29.55
2022-08-01T09:56:14.127Z,29.55
2022-08-01T09:57:20.513Z,29.60
2022-08-01T09:58:25.676Z,29.63
2022-08-01T09:59:57.182Z,29.64
2022-08-01T10:01:01.093Z,29.72
2022-08-01T10:01:55.160Z,29.72
2022-08-01T10:02:59.457Z,29.53
2022-08-01T10:04:17.552Z,29.50
2022-08-01T10:05:37.279Z,29.39
2022-08-01T10:06:47.141Z,29.20
2022-08-01T10:08:01.405Z,29.20
2022-08-01T10:09:09.836Z,29.20
2022-08-01T10:10:18.499Z,29.00
2022-08-01T10:11:55.484Z,29.00
2022-08-01T10:12:35.120Z,29.22
2022-08-01T10:13:41.132Z,29.22
2022-08-01T10:14:53.291Z,29.09
2022-08-01T10:15:55.623Z,29.18
2022-08-01T10:17:05.240Z,29.17
2022-08-01T10:18:16.714Z,29.04
2022-08-01T10:19:22.121Z,29.08
2022-08-01T10:20:32.675Z,29.02
2022-08-01T10:21:54.724Z,29.02
2022-08-01T10:22:45.054Z,29.06
2022-08-01T10:23:51.080Z,29.17
2022-08-01T10:24:58.284Z,29.19
2022-08-01T10:26:26.605Z,29.23
2022-08-01T10:27:14.417Z,29.21
2022-08-01T10:28:24.049Z,29.23
2022-08-01T10:29:59.148Z,29.23
2022-08-01T10:30:43.434Z,29.22
2022-08-01T10:31:42.823Z,29.15
2022-08-01T10:32:51.198Z,29.06
2022-08-01T10:33:55.374Z,28.94
2022-08-01T10:35:06.281Z,28.94
2022-08-01T10:36:13.643Z,29.04
2022-08-01T10:37:18.066Z,28.94
2022-08-01T10:38:27.646Z,29.00
2022-08-01T10:39:30.960Z,29.00
2022-08-01T10:40:35.058Z,29.06
2022-08-01T10:41:41.481Z,29.16
2022-08-01T10:42:49.198Z,29.06
2022-08-01T10:43:56.183Z,28.94
2022-08-01T10:45:00.707Z,28.94
2022-08-01T10:46:08.147Z,28.94
2022-08-01T10:47:50.621Z,28.95
2022-08-01T10:48:45.930Z,28.95
2022-08-01T10:49:52.953Z,29.04
2022-08-01T10:51:01.230Z,29.10
2022-08-01T10:52:05.683Z,29.13
2022-08-01T10:53:16.210Z,28.99
2022-08-01T10:54:18.732Z,28.99
2022-08-01T10:55:24.490Z,28.81
2022-08-01T10:56:42.033Z,28.70
2022-08-01T10:57:48.872Z,28.70
2022-08-01T10:59:06.027Z,28.64
2022-08-01T11:00:10.221Z,28.59
2022-08-01T11:01:26.313Z,28.62
2022-08-01T11:02:33.260Z,28.56
2022-08-01T11:03:56.188Z,28.65
2022-08-01T11:04:47.668Z,28.65
2022-08-01T11:05:54.097Z,28.47
2022-08-01T11:07:20.768Z,28.47
2022-08-01T11:08:26.540Z,28.52
2022-08-01T11:09:36.977Z,28.52
2022-08-01T11:10:43.855Z,28.55
2022-08-01T11:11:58.860Z,28.64
2022-08-01T11:13:04.893Z,28.53
2022-08-01T11:14:10.378Z,28.60
2022-08-01T11:15:29.885Z,28.62
2022-08-01T11:16:30.649Z,28.66
2022-08-01T11:17:42.160Z,28.55
2022-08-01T11:18:52.755Z,28.60
2022-08-01T11:20:22.197Z,28.60
2022-08-01T11:21:57.157Z,28.60
2022-08-01T11:23:04.635Z,28.65
2022-08-01T11:24:12.412Z,28.64
2022-08-01T11:25:16.315Z,28.61
2022-08-01T11:26:28.922Z,28.61
2022-08-01T11:27:33.919Z,28.57
2022-08-01T11:28:50.240Z,28.55
2022-08-01T11:30:07.835Z,28.63
2022-08-01T11:31:16.845Z,28.73
2022-08-01T11:32:28.403Z,28.73
2022-08-01T11:33:47.084Z,28.89
2022-08-01T11:34:55.526Z,28.89
2022-08-01T11:36:17.394Z,28.92
2022-08-01T11:37:31.209Z,28.98
2022-08-01T11:38:35.260Z,29.00
2022-08-01T11:39:39.860Z,29.00
2022-08-01T11:40:45.942Z,29.05
2022-08-01T11:41:50.447Z,29.07
2022-08-01T11:43:16.678Z,29.02
2022-08-01T11:44:24.798Z,29.08
2022-08-01T11:45:32.190Z,29.12
2022-08-01T11:47:09.317Z,29.12
2022-08-01T11:48:29.123Z,29.18
2022-08-01T11:49:38.878Z,29.13
2022-08-01T11:50:43.287Z,29.16
2022-08-01T11:51:48.365Z,29.23
2022-08-01T11:53:00.487Z,29.19
2022-08-01T11:54:04.703Z,29.11
2022-08-01T11:55:11.534Z,29.11
2022-08-01T11:56:18.171Z,29.20
2022-08-01T11:57:24.451Z,29.20
2022-08-01T11:58:31.887Z,29.25
2022-08-01T12:00:02.899Z,29.25
2022-08-01T12:00:58.107Z,29.08
2022-08-01T12:02:02.225Z,29.08
2022-08-01T12:03:09.368Z,28.95
2022-08-01T12:04:13.490Z,29.02
2022-08-01T12:05:19.381Z,28.97
2022-08-01T12:06:31.360Z,28.97
2022-08-01T12:07:38.291Z,28.97
2022-08-01T12:08:42.187Z,28.96
2022-08-01T12:09:46.610Z,28.96
2022-08-01T12:10:51.976Z,28.99
2022-08-01T12:11:59.381Z,29.05
2022-08-01T12:13:06.364Z,29.06
2022-08-01T12:14:10.500Z,29.05
2022-08-01T12:15:15.242Z,28.94
2022-08-01T12:16:20.486Z,28.87
2022-08-01T12:17:37.086Z,28.85
2022-08-01T12:18:44.599Z,28.85
2022-08-01T12:19:50.706Z,28.82
2022-08-01T12:21:00.166Z,28.92
2022-08-01T12:22:09.342Z,28.96
2022-08-01T12:23:15.657Z,29.07
2022-08-01T12:24:24.639Z,29.08
2022-08-01T12:25:30.101Z,29.08
2022-08-01T12:26:41.847Z,29.13
2022-08-01T12:27:48.276Z,29.16
2022-08-01T12:28:52.261Z,29.18
2022-08-01T12:30:08.028Z,29.07
2022-08-01T12:31:05.671Z,29.02
2022-08-01T12:32:35.399Z,28.98
2022-08-01T12:33:39.690Z,28.98
2022-08-01T12:34:46.517Z,28.85
2022-08-01T12:35:50.683Z,28.61
2022-08-01T12:36:56.393Z,28.52
2022-08-01T12:38:06.383Z,28.52
2022-08-01T12:39:10.592Z,28.52
2022-08-01T12:40:31.556Z,28.45
2022-08-01T12:41:35.000Z,28.50
2022-08-01T12:42:42.606Z,28.50
2022-08-01T12:43:46.682Z,28.36
2022-08-01T12:44:55.403Z,28.36
2022-08-01T12:46:01.689Z,28.39
2022-08-01T12:47:10.900Z,28.28
2022-08-01T12:48:19.725Z,28.28
2022-08-01T12:49:25.795Z,28.23
2022-08-01T12:50:33.074Z,28.16
2022-08-01T12:51:40.047Z,28.16
2022-08-01T12:52:43.990Z,28.20
2022-08-01T12:53:48.120Z,28.17
2022-08-01T12:55:11.495Z,28.12
2022-08-01T12:56:16.016Z,28.14
2022-08-01T12:57:26.249Z,28.16
2022-08-01T12:58:37.041Z,28.13
2022-08-01T12:59:41.249Z,28.07
2022-08-01T13:00:48.120Z,28.04
2022-08-01T13:01:53.111Z,28.04
2022-08-01T13:03:08.397Z,27.82
2022-08-01T13:04:12.407Z,27.82
2022-08-01T13:05:17.653Z,27.66
2022-08-01T13:06:24.151Z,27.66
2022-08-01T13:07:45.569Z,27.48
2022-08-01T13:08:47.502Z,27.48
2022-08-01T13:09:55.779Z,27.45
2022-08-01T13:11:06.258Z,27.48
2022-08-01T13:12:23.518Z,27.54
2022-08-01T13:13:27.765Z,27.54
2022-08-01T13:14:30.077Z,27.56
2022-08-01T13:15:36.446Z,27.61
2022-08-01T13:16:57.218Z,27.74
2022-08-01T13:17:56.342Z,27.78
2022-08-01T13:19:06.272Z,27.84
2022-08-01T13:20:11.189Z,27.86
2022-08-01T13:21:19.619Z,27.93
2022-08-01T13:22:26.615Z,27.98
2022-08-01T13:24:02.666Z,27.89
2022-08-01T13:24:55.921Z,27.89
2022-08-01T13:25:56.280Z,27.92
2022-08-01T13:27:05.567Z,27.93
2022-08-01T13:28:23.098Z,27.91
2022-08-01T13:29:43.277Z,27.98
2022-08-01T13:31:01.475Z,27.98
2022-08-01T13:32:28.006Z,27.94
2022-08-01T13:33:33.025Z,27.95
2022-08-01T13:34:35.334Z,28.07
2022-08-01T13:35:39.466Z,28.07
2022-08-01T13:36:49.049Z,28.12
2022-08-01T13:37:56.422Z,28.13
2022-08-01T13:38:59.220Z,28.19
2022-08-01T13:40:03.615Z,28.19
2022-08-01T13:41:07.664Z,28.13
2022-08-01T13:42:13.089Z,28.13
2022-08-01T13:43:18.782Z,28.17
2022-08-01T13:44:24.355Z,28.15
2022-08-01T13:45:28.474Z,28.22
2022-08-01T13:46:33.216Z,28.22
2022-08-01T13:47:37.518Z,28.27
2022-08-01T13:48:41.655Z,28.22
2022-08-01T13:49:45.810Z,28.21
2022-08-01T13:51:02.134Z,28.23
2022-08-01T13:51:55.691Z,28.24
2022-08-01T13:52:59.671Z,28.26
2022-08-01T13:54:04.019Z,28.20
2022-08-01T13:55:11.089Z,28.14
2022-08-01T13:56:17.013Z,28.22
2022-08-01T13:57:21.067Z,28.22
2022-08-01T13:58:26.678Z,28.17
2022-08-01T13:59:30.632Z,28.17
2022-08-01T14:00:36.262Z,27.99
2022-08-01T14:01:40.997Z,27.99
2022-08-01T14:02:46.487Z,27.91
2022-08-01T14:03:53.824Z,27.91
2022-08-01T14:05:05.434Z,27.87
2022-08-01T14:06:11.740Z,27.89
2022-08-01T14:07:17.328Z,27.80
2022-08-01T14:08:25.307Z,27.80
2022-08-01T14:09:32.736Z,27.81
2022-08-01T14:10:38.394Z,27.87
2022-08-01T14:11:46.054Z,27.91
2022-08-01T14:12:49.924Z,27.91
2022-08-01T14:13:53.903Z,27.90
2022-08-01T14:14:59.462Z,27.90
2022-08-01T14:16:03.890Z,27.86
2022-08-01T14:17:09.186Z,27.91
2022-08-01T14:18:13.299Z,27.85
2022-08-01T14:19:23.061Z,27.85
2022-08-01T14:20:29.984Z,27.74
2022-08-01T14:21:35.689Z,27.74
2022-08-01T14:22:41.337Z,27.65
2022-08-01T14:23:45.450Z,27.65
2022-08-01T14:24:52.056Z,27.53
2022-08-01T14:26:03.317Z,27.52